createdAt,value
2018-07-16T00:00:35.693Z,6.03
2018-07-16T00:03:04.092Z,5.63
2018-07-16T00:05:32.517Z,5.20
2018-07-16T00:08:00.866Z,5.70
2018-07-16T00:10:29.256Z,5.40
2018-07-16T00:12:57.601Z,5.83
2018-07-16T00:15:26.272Z,5.80
2018-07-16T00:17:54.677Z,5.67
2018-07-16T00:20:23.013Z,5.83
2018-07-16T00:22:51.685Z,5.37
2018-07-16T00:25:20.095Z,5.30
2018-07-16T00:27:48.717Z,5.63
2018-07-16T00:30:17.148Z,5.60
2018-07-16T00:32:45.498Z,5.60
2018-07-16T00:35:13.845Z,5.87
2018-07-16T00:37:41.915Z,5.03
2018-07-16T00:40:10.272Z,6.23
2018-07-16T00:42:38.653Z,5.77
2018-07-16T00:45:07.086Z,5.87
2018-07-16T00:47:35.487Z,5.50
2018-07-16T00:50:03.877Z,5.70
2018-07-16T00:52:32.269Z,5.63
2018-07-16T00:55:01.545Z,6.33
2018-07-16T00:57:29.976Z,5.70
2018-07-16T00:59:58.317Z,6.13
2018-07-16T01:02:27.016Z,5.87
2018-07-16T01:04:55.456Z,5.80
2018-07-16T01:07:23.888Z,6.60
2018-07-16T01:09:52.249Z,6.17
2018-07-16T01:12:20.648Z,6.17
2018-07-16T01:14:48.956Z,6.33
2018-07-16T01:17:17.649Z,6.47
2018-07-16T01:19:45.974Z,6.40
2018-07-16T01:22:14.368Z,6.07
2018-07-16T01:24:42.777Z,6.07
2018-07-16T01:27:11.181Z,7.40
2018-07-16T01:29:39.819Z,5.87
2018-07-16T01:32:08.188Z,6.23
2018-07-16T01:34:36.989Z,6.40
2018-07-16T01:37:05.434Z,6.50
2018-07-16T01:39:33.824Z,6.47
2018-07-16T01:42:02.224Z,6.73
2018-07-16T01:44:30.770Z,6.33
2018-07-16T01:46:59.439Z,6.00
2018-07-16T01:49:27.795Z,6.53
2018-07-16T01:51:56.238Z,6.37
2018-07-16T01:54:24.642Z,6.40
2018-07-16T01:56:53.024Z,6.67
2018-07-16T01:59:21.368Z,6.30
2018-07-16T02:01:50.028Z,6.67
2018-07-16T02:04:18.395Z,6.33
2018-07-16T02:06:46.521Z,6.03
2018-07-16T02:09:14.937Z,6.87
2018-07-16T02:11:43.571Z,6.80
2018-07-16T02:14:13.300Z,6.73
2018-07-16T02:16:41.683Z,6.40
2018-07-16T02:19:10.364Z,7.20
2018-07-16T02:21:38.778Z,6.83
2018-07-16T02:24:07.181Z,6.70
2018-07-16T02:26:35.535Z,5.70
2018-07-16T02:29:03.845Z,6.70
2018-07-16T02:31:32.243Z,6.50
2018-07-16T02:47:00.251Z,6.93
2018-07-16T02:49:28.615Z,6.80
2018-07-16T02:51:56.983Z,7.17
2018-07-16T02:54:25.354Z,6.67
2018-07-16T02:56:53.754Z,6.80
2018-07-16T02:59:22.120Z,6.53
2018-07-16T03:01:50.885Z,6.87
2018-07-16T03:04:19.319Z,6.60
2018-07-16T03:06:47.707Z,6.60
2018-07-16T03:09:16.056Z,6.27
2018-07-16T03:11:44.403Z,6.43
2018-07-16T03:14:12.811Z,6.53
2018-07-16T03:16:45.387Z,6.53
2018-07-16T03:19:13.881Z,6.30
2018-07-16T03:21:42.281Z,6.97
2018-07-16T03:24:10.592Z,6.20
2018-07-16T03:26:39.000Z,6.73
2018-07-16T03:29:07.502Z,6.80
2018-07-16T03:31:35.889Z,6.00
2018-07-16T03:34:04.340Z,7.20
2018-07-16T03:36:33.132Z,7.07
2018-07-16T03:39:01.613Z,6.60
2018-07-16T03:41:29.999Z,6.50
2018-07-16T03:43:58.416Z,6.20
2018-07-16T03:46:26.786Z,6.27
2018-07-16T03:48:55.167Z,6.77
2018-07-16T03:51:23.832Z,6.77
2018-07-16T03:53:52.221Z,7.20
2018-07-16T03:56:20.610Z,6.70
2018-07-16T03:58:49.009Z,6.90
2018-07-16T04:01:17.916Z,6.60
2018-07-16T04:03:46.282Z,6.40
2018-07-16T04:06:14.695Z,6.63
2018-07-16T04:08:43.021Z,6.70
2018-07-16T04:11:11.397Z,6.80
2018-07-16T04:13:40.419Z,6.60
2018-07-16T04:16:09.088Z,6.83
2018-07-16T04:18:37.458Z,6.90
2018-07-16T04:21:05.780Z,6.30
2018-07-16T04:23:34.140Z,6.10
2018-07-16T04:26:02.567Z,6.73
2018-07-16T04:28:31.029Z,6.27
2018-07-16T04:30:59.510Z,6.97
2018-07-16T04:33:28.157Z,6.87
2018-07-16T04:35:56.565Z,7.00
2018-07-16T04:38:25.020Z,6.90
2018-07-16T04:40:53.448Z,7.07
2018-07-16T04:43:22.002Z,7.23
2018-07-16T04:45:50.483Z,7.50
2018-07-16T04:48:18.942Z,7.73
2018-07-16T04:50:47.332Z,6.63
2018-07-16T04:53:15.765Z,7.37
2018-07-16T04:55:44.082Z,7.17
2018-07-16T04:58:12.456Z,7.47
2018-07-16T05:00:41.190Z,7.50
2018-07-16T05:03:09.274Z,6.83
2018-07-16T05:05:37.672Z,6.50
2018-07-16T05:08:06.051Z,6.93
2018-07-16T05:10:34.438Z,7.70
2018-07-16T05:13:03.144Z,6.87
2018-07-16T05:15:31.528Z,7.20
2018-07-16T05:18:00.087Z,7.33
2018-07-16T05:20:28.353Z,7.53
2018-07-16T05:22:56.797Z,7.37
2018-07-16T05:25:25.109Z,7.00
2018-07-16T05:27:53.489Z,7.03
2018-07-16T05:30:21.869Z,6.80
2018-07-16T05:32:50.024Z,7.07
2018-07-16T05:35:18.434Z,6.70
2018-07-16T05:37:47.100Z,7.27
2018-07-16T05:40:15.560Z,7.20
2018-07-16T05:42:43.929Z,7.30
2018-07-16T05:45:12.265Z,7.33
2018-07-16T05:47:41.004Z,7.40
2018-07-16T05:50:09.393Z,7.20
2018-07-16T05:52:38.258Z,7.30
2018-07-16T05:55:06.685Z,7.60
2018-07-16T05:57:35.061Z,6.70
2018-07-16T06:00:03.519Z,7.27
2018-07-16T06:02:31.970Z,7.00
2018-07-16T06:05:00.314Z,7.83
2018-07-16T06:07:28.781Z,8.37
2018-07-16T06:09:57.240Z,7.87
2018-07-16T06:12:26.019Z,7.20
2018-07-16T06:14:54.732Z,7.70
2018-07-16T06:17:23.188Z,7.63
2018-07-16T06:19:51.937Z,7.30
2018-07-16T06:22:20.612Z,7.93
2018-07-16T06:24:49.000Z,7.87
2018-07-16T06:27:17.413Z,8.23
2018-07-16T06:29:46.129Z,7.90
2018-07-16T06:32:14.815Z,7.33
2018-07-16T06:34:43.251Z,7.30
2018-07-16T06:37:11.609Z,8.53
2018-07-16T06:39:40.171Z,8.13
2018-07-16T06:42:08.562Z,8.17
2018-07-16T06:44:37.445Z,9.03
2018-07-16T06:47:05.945Z,8.53
2018-07-16T06:49:34.413Z,7.97
2018-07-16T06:52:02.841Z,8.20
2018-07-16T06:54:31.301Z,8.53
2018-07-16T06:56:59.697Z,8.33
2018-07-16T06:59:28.222Z,7.87
2018-07-16T07:01:56.626Z,8.10
2018-07-16T07:04:24.990Z,8.63
2018-07-16T07:06:53.060Z,8.57
2018-07-16T07:09:21.395Z,8.23
2018-07-16T07:11:50.153Z,8.33
2018-07-16T07:14:19.109Z,8.40
2018-07-16T07:16:47.577Z,8.43
2018-07-16T07:19:15.958Z,8.30
2018-07-16T07:21:44.344Z,8.17
2018-07-16T07:24:12.723Z,7.60
2018-07-16T07:26:41.944Z,8.20
2018-07-16T07:29:10.324Z,8.07
2018-07-16T07:31:39.387Z,7.73
2018-07-16T07:34:07.865Z,7.03
2018-07-16T07:36:36.300Z,7.10
2018-07-16T07:39:05.753Z,7.90
2018-07-16T07:41:34.162Z,7.40
2018-07-16T07:44:02.589Z,7.73
2018-07-16T07:46:30.991Z,7.60
2018-07-16T07:48:59.720Z,6.53
2018-07-16T07:51:28.224Z,6.23
2018-07-16T07:53:56.653Z,6.57
2018-07-16T07:56:25.147Z,5.87
2018-07-16T07:58:53.542Z,6.53
2018-07-16T08:01:22.118Z,6.30
2018-07-16T08:03:50.518Z,6.00
2018-07-16T08:06:18.916Z,4.67
2018-07-16T08:08:47.264Z,4.57
2018-07-16T08:11:15.730Z,4.93
2018-07-16T08:13:44.490Z,3.70
2018-07-16T08:16:12.856Z,3.47
2018-07-16T08:18:41.326Z,4.40
2018-07-16T08:21:13.203Z,3.77
2018-07-16T08:23:42.535Z,4.30
2018-07-16T08:26:11.015Z,3.50
2018-07-16T08:28:39.413Z,3.30
2018-07-16T08:31:07.789Z,2.87
2018-07-16T08:33:36.170Z,3.43
2018-07-16T08:36:04.566Z,4.30
2018-07-16T08:38:33.007Z,3.63
2018-07-16T08:41:01.385Z,3.85
2018-07-16T08:43:29.775Z,3.57
2018-07-16T08:45:58.240Z,3.47
2018-07-16T08:48:26.322Z,2.70
2018-07-16T08:50:55.634Z,2.47
2018-07-16T08:53:24.426Z,2.17
2018-07-16T08:55:52.810Z,2.60
2018-07-16T08:58:21.435Z,1.90
2018-07-16T09:00:49.841Z,2.00
2018-07-16T09:03:18.540Z,2.50
2018-07-16T09:05:51.497Z,2.57
2018-07-16T09:08:19.901Z,3.17
2018-07-16T09:10:48.354Z,2.60
2018-07-16T09:13:16.728Z,2.40
2018-07-16T09:15:45.188Z,2.20
2018-07-16T09:18:13.893Z,2.10
2018-07-16T09:20:42.223Z,1.90
2018-07-16T09:23:10.601Z,2.20
2018-07-16T09:25:39.045Z,2.00
2018-07-16T09:28:07.406Z,2.03
2018-07-16T09:30:35.760Z,2.20
2018-07-16T09:33:04.149Z,2.13
2018-07-16T09:35:32.482Z,2.00
2018-07-16T09:38:00.825Z,2.27
2018-07-16T09:40:29.329Z,2.20
2018-07-16T09:42:57.723Z,2.10
2018-07-16T09:45:26.107Z,1.93
2018-07-16T09:47:54.804Z,1.73
2018-07-16T09:50:23.194Z,2.10
2018-07-16T09:54:20.775Z,2.23
2018-07-16T09:56:49.164Z,1.97
2018-07-16T09:59:17.486Z,2.20
2018-07-16T10:01:50.081Z,2.10
2018-07-16T10:04:18.558Z,2.23
2018-07-16T10:06:46.850Z,2.30
2018-07-16T10:09:15.222Z,2.00
2018-07-16T10:11:43.598Z,2.10
2018-07-16T10:14:12.842Z,2.10
2018-07-16T10:16:41.254Z,1.70
2018-07-16T10:19:09.665Z,2.03
2018-07-16T10:21:38.073Z,2.20
2018-07-16T10:24:06.525Z,2.27
2018-07-16T10:26:35.009Z,2.13
2018-07-16T10:29:03.320Z,2.03
2018-07-16T10:31:31.700Z,2.20
2018-07-16T10:34:00.204Z,2.40
2018-07-16T10:36:28.529Z,1.97
2018-07-16T10:38:57.002Z,2.10
2018-07-16T10:41:25.443Z,2.10
2018-07-16T10:43:53.861Z,2.33
2018-07-16T10:46:22.242Z,2.50
2018-07-16T10:48:50.899Z,1.90
2018-07-16T10:51:19.308Z,2.30
2018-07-16T10:53:47.684Z,2.07
2018-07-16T10:56:16.042Z,2.10
2018-07-16T10:58:44.509Z,2.60
2018-07-16T11:01:12.855Z,2.20
2018-07-16T11:03:41.586Z,2.10
2018-07-16T11:06:15.373Z,2.30
2018-07-16T11:08:43.871Z,2.10
2018-07-16T11:11:12.313Z,2.40
2018-07-16T11:13:40.715Z,2.00
2018-07-16T11:16:09.423Z,2.40
2018-07-16T11:18:37.844Z,2.20
2018-07-16T11:21:06.301Z,2.53
2018-07-16T11:23:34.805Z,1.97
2018-07-16T11:26:03.231Z,2.17
2018-07-16T11:28:31.664Z,1.93
2018-07-16T11:31:00.047Z,2.00
2018-07-16T11:33:28.524Z,2.20
2018-07-16T11:35:57.038Z,1.93
2018-07-16T11:38:25.430Z,2.23
2018-07-16T11:40:53.774Z,2.07
2018-07-16T11:43:22.131Z,2.15
2018-07-16T11:45:50.817Z,1.90
2018-07-16T11:48:19.199Z,2.47
2018-07-16T11:50:47.611Z,2.13
2018-07-16T11:53:15.958Z,1.90
2018-07-16T11:55:44.363Z,2.10
2018-07-16T11:58:12.820Z,2.37
2018-07-16T12:00:41.250Z,1.90
2018-07-16T12:03:09.724Z,1.87
2018-07-16T12:05:38.113Z,1.73
2018-07-16T12:08:06.466Z,2.00
2018-07-16T12:10:34.964Z,2.17
2018-07-16T12:13:03.470Z,1.90
2018-07-16T12:15:32.006Z,2.10
2018-07-16T12:18:00.394Z,2.37
2018-07-16T12:20:28.848Z,2.20
2018-07-16T12:22:57.277Z,2.20
2018-07-16T12:25:25.683Z,2.10
2018-07-16T12:27:54.176Z,2.00
2018-07-16T12:30:22.986Z,2.30
2018-07-16T12:32:51.848Z,2.20
2018-07-16T12:35:20.404Z,2.30
2018-07-16T12:37:48.791Z,1.90
2018-07-16T12:40:17.234Z,2.53
2018-07-16T12:42:46.007Z,1.80
2018-07-16T12:45:14.436Z,2.00
2018-07-16T12:47:42.845Z,2.10
2018-07-16T12:50:10.942Z,2.03
2018-07-16T12:52:39.345Z,1.87
2018-07-16T12:55:08.120Z,1.80
2018-07-16T12:57:36.530Z,2.23
2018-07-16T13:00:06.128Z,1.80
2018-07-16T13:02:34.606Z,1.67
2018-07-16T13:05:02.957Z,1.63
2018-07-16T13:07:31.337Z,1.77
2018-07-16T13:09:59.778Z,2.10
2018-07-16T13:12:28.151Z,2.57
2018-07-16T13:14:56.614Z,1.93
2018-07-16T13:17:24.979Z,2.03
2018-07-16T13:19:53.891Z,1.80
2018-07-16T13:22:22.289Z,1.90
2018-07-16T13:24:50.658Z,1.83
2018-07-16T13:27:19.024Z,2.00
2018-07-16T13:29:47.243Z,1.80
2018-07-16T13:32:15.624Z,1.87
2018-07-16T13:34:44.086Z,1.80
2018-07-16T13:37:12.604Z,2.47
2018-07-16T13:39:41.215Z,1.87
2018-07-16T13:42:09.923Z,2.03
2018-07-16T13:44:38.512Z,2.30
2018-07-16T13:47:06.974Z,2.17
2018-07-16T13:49:35.454Z,1.93
2018-07-16T13:52:03.809Z,2.00
2018-07-16T13:54:32.286Z,2.00
2018-07-16T13:57:01.293Z,2.30
2018-07-16T13:59:29.648Z,2.07
2018-07-16T14:01:58.063Z,2.43
2018-07-16T14:04:26.383Z,2.50
2018-07-16T14:06:54.760Z,2.57
2018-07-16T14:10:25.983Z,2.33
2018-07-16T14:12:54.357Z,2.40
2018-07-16T14:15:22.777Z,2.10
2018-07-16T14:17:51.136Z,2.30
2018-07-16T14:20:19.564Z,2.37
2018-07-16T14:22:47.923Z,2.40
2018-07-16T14:25:16.564Z,2.20
2018-07-16T14:27:45.002Z,2.23
2018-07-16T14:30:13.381Z,2.70
2018-07-16T14:32:41.757Z,2.30
2018-07-16T14:35:10.333Z,2.33
2018-07-16T14:37:38.673Z,2.30
2018-07-16T14:40:07.460Z,2.77
2018-07-16T14:42:35.837Z,2.60
2018-07-16T14:45:04.365Z,2.40
2018-07-16T14:47:32.775Z,2.33
2018-07-16T14:50:01.172Z,2.80
2018-07-16T14:52:29.576Z,2.23
2018-07-16T14:54:58.051Z,2.37
2018-07-16T14:57:26.802Z,2.53
2018-07-16T14:59:55.573Z,2.97
2018-07-16T15:02:24.235Z,2.37
2018-07-16T15:04:52.750Z,2.70
2018-07-16T15:07:21.118Z,2.80
2018-07-16T15:09:50.343Z,2.23
2018-07-16T15:12:18.756Z,2.50
2018-07-16T15:14:47.286Z,2.60
2018-07-16T15:17:16.480Z,2.50
2018-07-16T15:19:44.915Z,2.60
2018-07-16T15:22:13.349Z,2.20
2018-07-16T15:24:42.519Z,2.60
2018-07-16T15:27:10.884Z,2.30
2018-07-16T15:29:39.156Z,2.40
2018-07-16T15:32:07.258Z,2.30
2018-07-16T15:34:35.700Z,2.50
2018-07-16T15:37:04.319Z,2.60
2018-07-16T15:39:32.741Z,2.33
2018-07-16T15:42:01.182Z,2.47
2018-07-16T15:44:29.332Z,2.70
2018-07-16T15:46:58.047Z,2.40
2018-07-16T15:49:26.462Z,2.30
2018-07-16T15:51:55.182Z,2.70
2018-07-16T15:54:23.557Z,2.50
2018-07-16T15:56:52.030Z,2.60
2018-07-16T15:59:20.435Z,2.23
2018-07-16T16:01:48.843Z,2.33
2018-07-16T16:04:17.240Z,2.50
2018-07-16T16:06:45.618Z,2.40
2018-07-16T16:09:13.959Z,2.67
2018-07-16T16:11:42.362Z,2.27
2018-07-16T16:14:10.733Z,2.23
2018-07-16T16:16:39.134Z,2.43
2018-07-16T16:19:07.509Z,2.23
2018-07-16T16:21:35.967Z,2.50
2018-07-16T16:24:04.378Z,2.57
2018-07-16T16:26:32.721Z,2.40
2018-07-16T16:29:01.072Z,2.57
2018-07-16T16:31:29.474Z,2.10
2018-07-16T16:33:57.874Z,2.63
2018-07-16T16:36:26.247Z,2.23
2018-07-16T16:38:54.594Z,2.40
2018-07-16T16:41:22.639Z,2.57
2018-07-16T16:43:51.045Z,2.60
2018-07-16T16:46:19.927Z,2.30
2018-07-16T16:48:48.470Z,2.77
2018-07-16T16:51:16.865Z,2.67
2018-07-16T16:53:45.642Z,2.50
2018-07-16T16:56:14.012Z,2.43
2018-07-16T16:58:42.468Z,3.07
2018-07-16T17:01:10.901Z,2.90
2018-07-16T17:03:39.345Z,2.80
2018-07-16T17:06:07.449Z,2.47
2018-07-16T17:08:35.927Z,2.87
2018-07-16T17:11:04.375Z,2.50
2018-07-16T17:13:32.804Z,2.80
2018-07-16T17:16:01.252Z,2.53
2018-07-16T17:18:29.837Z,2.70
2018-07-16T17:20:58.268Z,2.20
2018-07-16T17:23:26.864Z,2.43
2018-07-16T17:25:55.265Z,2.20
2018-07-16T17:28:23.679Z,2.40
2018-07-16T17:30:52.149Z,3.63
2018-07-16T17:33:20.489Z,2.30
2018-07-16T17:35:48.919Z,2.37
2018-07-16T17:38:17.592Z,2.33
2018-07-16T17:40:45.954Z,2.50
2018-07-16T17:43:14.311Z,2.70
2018-07-16T17:45:42.763Z,2.67
2018-07-16T17:48:11.200Z,2.53
2018-07-16T17:50:39.645Z,2.53
2018-07-16T17:53:08.150Z,2.40
2018-07-16T17:55:37.293Z,2.70
2018-07-16T17:58:06.093Z,2.53
2018-07-16T18:00:34.466Z,3.07
2018-07-16T18:03:02.869Z,2.60
2018-07-16T18:05:31.244Z,2.50
2018-07-16T18:07:59.671Z,2.60
2018-07-16T18:10:27.786Z,2.70
2018-07-16T18:12:56.214Z,2.47
2018-07-16T18:15:25.048Z,2.47
2018-07-16T18:17:53.503Z,2.43
2018-07-16T18:20:21.898Z,2.53
2018-07-16T18:22:50.263Z,2.73
2018-07-16T18:25:18.417Z,2.70
2018-07-16T18:27:46.761Z,2.50
2018-07-16T18:30:15.294Z,2.30
2018-07-16T18:32:43.967Z,2.13
2018-07-16T18:35:12.368Z,2.50
2018-07-16T18:37:40.837Z,2.53
2018-07-16T18:40:09.188Z,2.40
2018-07-16T18:42:37.841Z,3.00
2018-07-16T18:45:06.613Z,2.73
2018-07-16T18:47:35.257Z,2.67
2018-07-16T18:50:03.742Z,2.63
2018-07-16T18:52:32.176Z,2.80
2018-07-16T18:55:00.579Z,2.57
2018-07-16T18:57:29.005Z,2.80
2018-07-16T18:59:57.378Z,2.63
2018-07-16T19:02:26.093Z,2.80
2018-07-16T19:04:54.849Z,2.50
2018-07-16T19:07:23.700Z,2.40
2018-07-16T19:09:52.743Z,2.60
2018-07-16T19:12:21.413Z,2.60
2018-07-16T19:14:50.841Z,2.50
2018-07-16T19:17:19.262Z,2.63
2018-07-16T19:19:47.731Z,2.50
2018-07-16T19:22:16.032Z,2.40
2018-07-16T19:24:44.430Z,2.57
2018-07-16T19:27:13.110Z,2.60
2018-07-16T19:29:41.702Z,2.37
2018-07-16T19:32:10.093Z,2.63
2018-07-16T19:34:38.539Z,2.70
2018-07-16T19:37:07.303Z,2.90
2018-07-16T19:39:35.696Z,2.50
2018-07-16T19:42:04.160Z,2.70
2018-07-16T19:44:32.533Z,2.63
2018-07-16T19:47:00.897Z,2.87
2018-07-16T19:49:29.336Z,3.93
2018-07-16T19:51:57.819Z,4.20
2018-07-16T19:54:26.227Z,4.77
2018-07-16T19:56:54.685Z,4.97
2018-07-16T19:59:23.084Z,5.07
2018-07-16T20:01:51.514Z,4.27
2018-07-16T20:04:19.572Z,4.60
2018-07-16T20:06:48.010Z,5.10
2018-07-16T20:09:16.497Z,4.47
2018-07-16T20:11:44.828Z,5.03
2018-07-16T20:14:13.193Z,4.97
2018-07-16T20:16:42.825Z,5.03
2018-07-16T20:20:40.674Z,5.20
2018-07-16T20:23:09.132Z,5.00
2018-07-16T20:25:37.840Z,5.13
2018-07-16T20:28:06.291Z,4.87
2018-07-16T20:30:34.705Z,4.80
2018-07-16T20:33:03.129Z,5.23
2018-07-16T20:35:31.538Z,4.57
2018-07-16T20:37:59.899Z,4.33
2018-07-16T20:40:28.519Z,4.77
2018-07-16T20:42:56.889Z,5.40
2018-07-16T20:45:25.319Z,4.60
2018-07-16T20:47:53.723Z,4.40
2018-07-16T20:50:22.172Z,4.70
2018-07-16T20:52:50.778Z,4.63
2018-07-16T20:55:19.170Z,4.30
2018-07-16T20:57:47.554Z,4.60
2018-07-16T21:00:16.034Z,4.67
2018-07-16T21:02:44.549Z,4.60
2018-07-16T21:05:13.175Z,4.97
2018-07-16T21:07:41.344Z,4.47
2018-07-16T21:10:09.832Z,5.53
2018-07-16T21:12:38.284Z,5.13
2018-07-16T21:15:06.696Z,5.07
2018-07-16T21:17:35.145Z,5.10
2018-07-16T21:20:03.627Z,6.40
2018-07-16T21:22:32.228Z,6.73
2018-07-16T21:25:00.649Z,6.77
2018-07-16T21:27:29.131Z,7.07
2018-07-16T21:29:57.543Z,5.83
2018-07-16T21:32:25.867Z,6.60
2018-07-16T21:41:41.613Z,6.63
2018-07-16T21:44:10.025Z,6.33
2018-07-16T21:46:38.534Z,6.50
2018-07-16T21:49:06.984Z,6.67
2018-07-16T21:51:35.392Z,7.47
2018-07-16T21:54:03.919Z,7.07
2018-07-16T21:56:32.389Z,6.37
2018-07-16T21:59:01.382Z,6.57
2018-07-16T22:01:29.920Z,6.53
2018-07-16T22:03:58.382Z,6.53
2018-07-16T22:06:26.840Z,6.97
2018-07-16T22:08:55.277Z,6.73
2018-07-16T22:11:23.684Z,6.17
2018-07-16T22:13:53.062Z,5.93
2018-07-16T22:16:21.482Z,6.07
2018-07-16T22:18:49.917Z,6.43
2018-07-16T22:21:18.353Z,7.03
2018-07-16T22:23:46.703Z,6.30
2018-07-16T22:26:15.090Z,7.00
2018-07-16T22:28:43.452Z,7.13
2018-07-16T22:31:11.890Z,7.50
2018-07-16T22:33:41.222Z,6.43
2018-07-16T22:36:09.668Z,6.50
2018-07-16T22:38:38.176Z,6.20
2018-07-16T22:41:06.876Z,6.47
2018-07-16T22:43:35.634Z,6.60
2018-07-16T22:46:04.039Z,7.00
2018-07-16T22:48:32.466Z,7.60
2018-07-16T22:51:01.102Z,7.70
2018-07-16T22:53:29.196Z,8.87
2018-07-16T22:55:57.575Z,8.53
2018-07-16T22:58:26.021Z,8.43
2018-07-16T23:00:55.725Z,8.83
2018-07-16T23:03:24.135Z,8.90
2018-07-16T23:05:52.519Z,8.40
2018-07-16T23:08:20.901Z,8.33
2018-07-16T23:10:49.330Z,8.33
2018-07-16T23:13:17.848Z,8.60
2018-07-16T23:15:46.382Z,8.67
2018-07-16T23:18:14.824Z,8.07
2018-07-16T23:20:43.244Z,8.30
2018-07-16T23:23:11.348Z,8.73
2018-07-16T23:25:39.801Z,9.87
2018-07-16T23:28:08.161Z,8.73
2018-07-16T23:30:36.499Z,9.03
2018-07-16T23:33:04.828Z,9.80
2018-07-16T23:35:33.207Z,9.57
2018-07-16T23:38:01.582Z,9.50
2018-07-16T23:40:30.023Z,9.20
2018-07-16T23:42:58.395Z,9.20
2018-07-16T23:45:26.771Z,9.73
2018-07-16T23:47:55.222Z,9.63
2018-07-16T23:50:23.730Z,9.93
2018-07-16T23:52:52.059Z,9.50
2018-07-16T23:55:20.444Z,9.07
2018-07-16T23:57:49.215Z,8.53
